sensor_id;sensor_type;location;lat;lon;timestamp;pressure;altitude;pressure_sealevel;temperature;humidity
47054;BME280;32811;52.382;5.270;2023-04-06T00:00:13;101912.53;;;1.68;100.00
47054;BME280;32811;52.382;5.270;2023-04-06T00:02:40;101916.66;;;1.66;100.00
47054;BME280;32811;52.382;5.270;2023-04-06T00:05:07;101888.22;;;1.43;100.00
47054;BME280;32811;52.382;5.270;2023-04-06T00:07:34;101919.69;;;1.60;100.00
47054;BME280;32811;52.382;5.270;2023-04-06T00:10:02;101914.44;;;1.57;100.00
47054;BME280;32811;52.382;5.270;2023-04-06T00:12:28;101908.28;;;1.54;100.00
47054;BME280;32811;52.382;5.270;2023-04-06T00:14:55;101903.91;;;1.51;100.00
47054;BME280;32811;52.382;5.270;2023-04-06T00:17:22;101901.34;;;1.51;100.00
47054;BME280;32811;52.382;5.270;2023-04-06T00:19:48;101897.78;;;1.48;100.00
47054;BME280;32811;52.382;5.270;2023-04-06T00:22:15;101897.13;;;1.52;100.00
47054;BME280;32811;52.382;5.270;2023-04-06T00:24:42;101897.69;;;1.61;100.00
47054;BME280;32811;52.382;5.270;2023-04-06T00:27:08;101900.41;;;1.64;100.00
47054;BME280;32811;52.382;5.270;2023-04-06T00:29:35;101865.56;;;1.48;100.00
47054;BME280;32811;52.382;5.270;2023-04-06T00:32:02;101893.56;;;1.63;100.00
47054;BME280;32811;52.382;5.270;2023-04-06T00:34:28;101880.81;;;1.63;100.00
47054;BME280;32811;52.382;5.270;2023-04-06T00:36:55;101837.78;;;1.36;100.00
47054;BME280;32811;52.382;5.270;2023-04-06T00:39:22;101885.50;;;1.70;100.00
47054;BME280;32811;52.382;5.270;2023-04-06T00:41:51;101853.88;;;1.52;100.00
47054;BME280;32811;52.382;5.270;2023-04-06T00:44:19;101877.66;;;1.67;100.00
47054;BME280;32811;52.382;5.270;2023-04-06T00:46:46;101847.88;;;1.50;100.00
47054;BME280;32811;52.382;5.270;2023-04-06T00:49:13;101852.75;;;1.47;100.00
47054;BME280;32811;52.382;5.270;2023-04-06T00:51:39;101842.69;;;1.48;100.00
47054;BME280;32811;52.382;5.270;2023-04-06T00:54:06;101858.22;;;1.53;100.00
47054;BME280;32811;52.382;5.270;2023-04-06T00:56:33;101859.88;;;1.52;100.00
47054;BME280;32811;52.382;5.270;2023-04-06T00:59:00;101850.13;;;1.45;100.00
47054;BME280;32811;52.382;5.270;2023-04-06T01:01:27;101853.63;;;1.47;100.00
47054;BME280;32811;52.382;5.270;2023-04-06T01:03:55;101854.84;;;1.54;100.00
47054;BME280;32811;52.382;5.270;2023-04-06T01:06:21;101844.53;;;1.51;100.00
47054;BME280;32811;52.382;5.270;2023-04-06T01:08:48;101843.91;;;1.55;100.00
47054;BME280;32811;52.382;5.270;2023-04-06T01:11:15;101829.16;;;1.49;100.00
47054;BME280;32811;52.382;5.270;2023-04-06T01:13:41;101815.22;;;1.42;100.00
47054;BME280;32811;52.382;5.270;2023-04-06T01:16:08;101830.38;;;1.56;100.00
47054;BME280;32811;52.382;5.270;2023-04-06T01:18:37;101838.44;;;1.78;100.00
47054;BME280;32811;52.382;5.270;2023-04-06T01:21:04;101817.75;;;1.72;100.00
47054;BME280;32811;52.382;5.270;2023-04-06T01:23:31;101814.66;;;1.78;100.00
47054;BME280;32811;52.382;5.270;2023-04-06T01:25:57;101824.81;;;1.93;100.00
47054;BME280;32811;52.382;5.270;2023-04-06T01:28:24;101802.38;;;1.85;100.00
47054;BME280;32811;52.382;5.270;2023-04-06T01:30:51;101795.59;;;1.86;100.00
47054;BME280;32811;52.382;5.270;2023-04-06T01:33:17;101819.44;;;2.03;100.00
47054;BME280;32811;52.382;5.270;2023-04-06T01:35:44;101818.81;;;2.07;100.00
47054;BME280;32811;52.382;5.270;2023-04-06T01:38:11;101799.31;;;2.07;100.00
47054;BME280;32811;52.382;5.270;2023-04-06T01:40:38;101806.00;;;2.05;100.00
47054;BME280;32811;52.382;5.270;2023-04-06T01:43:04;101800.34;;;2.11;100.00
47054;BME280;32811;52.382;5.270;2023-04-06T01:45:31;101795.16;;;2.10;100.00
47054;BME280;32811;52.382;5.270;2023-04-06T01:47:57;101799.50;;;2.11;100.00
47054;BME280;32811;52.382;5.270;2023-04-06T01:50:24;101794.41;;;2.11;100.00
47054;BME280;32811;52.382;5.270;2023-04-06T01:52:51;101785.41;;;2.17;100.00
47054;BME280;32811;52.382;5.270;2023-04-06T01:55:17;101785.66;;;2.22;100.00
47054;BME280;32811;52.382;5.270;2023-04-06T01:57:44;101781.44;;;2.22;100.00
47054;BME280;32811;52.382;5.270;2023-04-06T02:00:11;101782.94;;;2.19;100.00
47054;BME280;32811;52.382;5.270;2023-04-06T02:02:38;101787.25;;;2.20;100.00
47054;BME280;32811;52.382;5.270;2023-04-06T02:05:05;101773.41;;;2.15;100.00
47054;BME280;32811;52.382;5.270;2023-04-06T02:07:32;101765.28;;;2.22;100.00
47054;BME280;32811;52.382;5.270;2023-04-06T02:09:59;101780.75;;;2.41;100.00
47054;BME280;32811;52.382;5.270;2023-04-06T02:12:25;101762.84;;;2.40;100.00
47054;BME280;32811;52.382;5.270;2023-04-06T02:14:52;101761.56;;;2.48;100.00
47054;BME280;32811;52.382;5.270;2023-04-06T02:17:18;101769.69;;;2.57;100.00
47054;BME280;32811;52.382;5.270;2023-04-06T02:19:45;101764.56;;;2.74;100.00
47054;BME280;32811;52.382;5.270;2023-04-06T02:22:12;101764.25;;;2.84;100.00
47054;BME280;32811;52.382;5.270;2023-04-06T02:24:39;101755.06;;;2.87;100.00
47054;BME280;32811;52.382;5.270;2023-04-06T02:27:05;101761.22;;;2.91;100.00
47054;BME280;32811;52.382;5.270;2023-04-06T02:29:32;101758.47;;;2.88;100.00
47054;BME280;32811;52.382;5.270;2023-04-06T02:31:58;101755.00;;;2.86;100.00
47054;BME280;32811;52.382;5.270;2023-04-06T02:34:26;101754.75;;;2.81;100.00
47054;BME280;32811;52.382;5.270;2023-04-06T02:36:52;101748.06;;;2.83;100.00
47054;BME280;32811;52.382;5.270;2023-04-06T02:39:19;101749.81;;;2.84;100.00
47054;BME280;32811;52.382;5.270;2023-04-06T02:41:45;101752.69;;;2.90;100.00
47054;BME280;32811;52.382;5.270;2023-04-06T02:44:12;101746.53;;;2.87;100.00
47054;BME280;32811;52.382;5.270;2023-04-06T02:46:39;101747.19;;;2.99;100.00
47054;BME280;32811;52.382;5.270;2023-04-06T02:49:06;101735.34;;;3.01;100.00
47054;BME280;32811;52.382;5.270;2023-04-06T02:51:33;101741.41;;;3.03;100.00
47054;BME280;32811;52.382;5.270;2023-04-06T02:54:00;101737.44;;;3.08;100.00
47054;BME280;32811;52.382;5.270;2023-04-06T02:56:26;101736.84;;;3.14;100.00
47054;BME280;32811;52.382;5.270;2023-04-06T02:58:53;101723.13;;;3.12;100.00
47054;BME280;32811;52.382;5.270;2023-04-06T03:01:20;101729.09;;;3.12;100.00
47054;BME280;32811;52.382;5.270;2023-04-06T03:03:46;101722.19;;;3.10;100.00
47054;BME280;32811;52.382;5.270;2023-04-06T03:06:13;101723.28;;;3.15;100.00
47054;BME280;32811;52.382;5.270;2023-04-06T03:08:40;101706.66;;;3.05;100.00
47054;BME280;32811;52.382;5.270;2023-04-06T03:11:06;101713.78;;;3.12;100.00
47054;BME280;32811;52.382;5.270;2023-04-06T03:13:33;101716.50;;;3.16;100.00
47054;BME280;32811;52.382;5.270;2023-04-06T03:16:00;101708.84;;;3.16;100.00
47054;BME280;32811;52.382;5.270;2023-04-06T03:18:26;101714.91;;;3.18;100.00
47054;BME280;32811;52.382;5.270;2023-04-06T03:20:53;101693.38;;;3.12;100.00
47054;BME280;32811;52.382;5.270;2023-04-06T03:23:22;101712.81;;;3.27;100.00
47054;BME280;32811;52.382;5.270;2023-04-06T03:25:49;101702.00;;;3.15;100.00
47054;BME280;32811;52.382;5.270;2023-04-06T03:28:16;101691.75;;;3.13;100.00
47054;BME280;32811;52.382;5.270;2023-04-06T03:30:42;101699.91;;;3.24;100.00
47054;BME280;32811;52.382;5.270;2023-04-06T03:33:09;101693.78;;;3.20;100.00
47054;BME280;32811;52.382;5.270;2023-04-06T03:35:36;101696.25;;;3.19;100.00
47054;BME280;32811;52.382;5.270;2023-04-06T03:38:04;101693.91;;;3.23;100.00
47054;BME280;32811;52.382;5.270;2023-04-06T03:40:31;101694.13;;;3.28;100.00
47054;BME280;32811;52.382;5.270;2023-04-06T03:42:57;101691.34;;;3.23;100.00
47054;BME280;32811;52.382;5.270;2023-04-06T03:45:24;101692.09;;;3.21;100.00
47054;BME280;32811;52.382;5.270;2023-04-06T03:47:51;101691.22;;;3.20;100.00
47054;BME280;32811;52.382;5.270;2023-04-06T03:50:17;101683.47;;;3.19;100.00
47054;BME280;32811;52.382;5.270;2023-04-06T03:52:44;101685.25;;;3.20;100.00
47054;BME280;32811;52.382;5.270;2023-04-06T03:55:11;101677.59;;;3.20;100.00
47054;BME280;32811;52.382;5.270;2023-04-06T03:57:37;101676.44;;;3.13;100.00
47054;BME280;32811;52.382;5.270;2023-04-06T04:00:05;101677.84;;;3.08;100.00
47054;BME280;32811;52.382;5.270;2023-04-06T04:02:32;101671.44;;;2.98;100.00
47054;BME280;32811;52.382;5.270;2023-04-06T04:04:58;101668.75;;;2.95;100.00
47054;BME280;32811;52.382;5.270;2023-04-06T04:07:25;101664.44;;;2.94;100.00
47054;BME280;32811;52.382;5.270;2023-04-06T04:09:52;101682.47;;;2.97;100.00
47054;BME280;32811;52.382;5.270;2023-04-06T04:12:19;101667.81;;;2.93;100.00
47054;BME280;32811;52.382;5.270;2023-04-06T04:14:45;101682.31;;;2.94;100.00
47054;BME280;32811;52.382;5.270;2023-04-06T04:17:12;101674.50;;;2.91;100.00
47054;BME280;32811;52.382;5.270;2023-04-06T04:19:39;101672.47;;;2.84;100.00
47054;BME280;32811;52.382;5.270;2023-04-06T04:22:06;101673.66;;;2.74;100.00
47054;BME280;32811;52.382;5.270;2023-04-06T04:24:33;101679.31;;;2.85;100.00
47054;BME280;32811;52.382;5.270;2023-04-06T04:26:59;101680.69;;;2.78;100.00
47054;BME280;32811;52.382;5.270;2023-04-06T04:29:27;101681.91;;;2.68;100.00
47054;BME280;32811;52.382;5.270;2023-04-06T04:31:53;101674.66;;;2.60;100.00
47054;BME280;32811;52.382;5.270;2023-04-06T04:34:20;101675.22;;;2.54;100.00
47054;BME280;32811;52.382;5.270;2023-04-06T04:36:50;101680.50;;;2.57;100.00
47054;BME280;32811;52.382;5.270;2023-04-06T04:39:16;101679.84;;;2.61;100.00
47054;BME280;32811;52.382;5.270;2023-04-06T04:41:43;101678.16;;;2.62;100.00
47054;BME280;32811;52.382;5.270;2023-04-06T04:44:10;101677.53;;;2.66;100.00
47054;BME280;32811;52.382;5.270;2023-04-06T04:46:36;101673.44;;;2.69;100.00
47054;BME280;32811;52.382;5.270;2023-04-06T04:49:03;101674.25;;;2.68;100.00
47054;BME280;32811;52.382;5.270;2023-04-06T04:51:29;101666.28;;;2.62;100.00
47054;BME280;32811;52.382;5.270;2023-04-06T04:53:57;101670.91;;;2.69;100.00
47054;BME280;32811;52.382;5.270;2023-04-06T04:56:24;101671.19;;;2.76;100.00
47054;BME280;32811;52.382;5.270;2023-04-06T04:58:50;101664.41;;;2.76;100.00
47054;BME280;32811;52.382;5.270;2023-04-06T05:01:17;101671.44;;;2.80;100.00
47054;BME280;32811;52.382;5.270;2023-04-06T05:03:44;101665.69;;;2.84;100.00
47054;BME280;32811;52.382;5.270;2023-04-06T05:06:11;101664.31;;;2.91;100.00
47054;BME280;32811;52.382;5.270;2023-04-06T05:08:39;101656.81;;;2.94;100.00
47054;BME280;32811;52.382;5.270;2023-04-06T05:11:05;101656.28;;;3.01;100.00
47054;BME280;32811;52.382;5.270;2023-04-06T05:13:32;101658.34;;;3.08;100.00
47054;BME280;32811;52.382;5.270;2023-04-06T05:15:59;101661.84;;;3.10;100.00
47054;BME280;32811;52.382;5.270;2023-04-06T05:18:26;101643.84;;;3.07;100.00
47054;BME280;32811;52.382;5.270;2023-04-06T05:20:52;101648.41;;;3.15;100.00
47054;BME280;32811;52.382;5.270;2023-04-06T05:23:19;101650.50;;;3.22;100.00
47054;BME280;32811;52.382;5.270;2023-04-06T05:25:46;101641.50;;;3.30;100.00
47054;BME280;32811;52.382;5.270;2023-04-06T05:28:13;101645.41;;;3.41;100.00
47054;BME280;32811;52.382;5.270;2023-04-06T05:30:43;101656.22;;;3.53;100.00
47054;BME280;32811;52.382;5.270;2023-04-06T05:33:11;101645.34;;;3.58;100.00
47054;BME280;32811;52.382;5.270;2023-04-06T05:35:38;101646.63;;;3.67;100.00
47054;BME280;32811;52.382;5.270;2023-04-06T05:38:08;101643.28;;;3.68;100.00
47054;BME280;32811;52.382;5.270;2023-04-06T05:40:36;101630.53;;;3.68;100.00
47054;BME280;32811;52.382;5.270;2023-04-06T05:43:04;101646.50;;;3.84;100.00
47054;BME280;32811;52.382;5.270;2023-04-06T05:45:30;101644.75;;;3.83;100.00
47054;BME280;32811;52.382;5.270;2023-04-06T05:47:57;101645.38;;;3.97;100.00
47054;BME280;32811;52.382;5.270;2023-04-06T05:50:24;101635.06;;;3.95;100.00
47054;BME280;32811;52.382;5.270;2023-04-06T05:52:51;101640.00;;;4.10;100.00
47054;BME280;32811;52.382;5.270;2023-04-06T05:55:17;101637.56;;;4.32;100.00
47054;BME280;32811;52.382;5.270;2023-04-06T05:57:44;101629.84;;;4.31;100.00
47054;BME280;32811;52.382;5.270;2023-04-06T06:00:11;101639.91;;;4.28;100.00
47054;BME280;32811;52.382;5.270;2023-04-06T06:02:38;101641.50;;;4.24;100.00
47054;BME280;32811;52.382;5.270;2023-04-06T06:05:06;101638.94;;;4.24;100.00
47054;BME280;32811;52.382;5.270;2023-04-06T06:07:33;101633.06;;;4.27;100.00
47054;BME280;32811;52.382;5.270;2023-04-06T06:10:00;101636.06;;;4.37;100.00
47054;BME280;32811;52.382;5.270;2023-04-06T06:12:26;101640.56;;;4.43;100.00
47054;BME280;32811;52.382;5.270;2023-04-06T06:14:54;101636.41;;;4.45;100.00
47054;BME280;32811;52.382;5.270;2023-04-06T06:17:20;101640.66;;;4.45;100.00
47054;BME280;32811;52.382;5.270;2023-04-06T06:19:47;101636.97;;;4.38;100.00
47054;BME280;32811;52.382;5.270;2023-04-06T06:22:14;101636.22;;;4.41;100.00
47054;BME280;32811;52.382;5.270;2023-04-06T06:24:41;101636.06;;;4.37;100.00
47054;BME280;32811;52.382;5.270;2023-04-06T06:27:07;101632.59;;;4.35;100.00
47054;BME280;32811;52.382;5.270;2023-04-06T06:29:34;101634.78;;;4.47;100.00
47054;BME280;32811;52.382;5.270;2023-04-06T06:32:00;101630.63;;;4.49;100.00
47054;BME280;32811;52.382;5.270;2023-04-06T06:34:27;101632.88;;;4.63;100.00
47054;BME280;32811;52.382;5.270;2023-04-06T06:36:54;101624.44;;;4.65;100.00
47054;BME280;32811;52.382;5.270;2023-04-06T06:39:21;101630.31;;;4.84;100.00
47054;BME280;32811;52.382;5.270;2023-04-06T06:41:48;101626.38;;;4.92;100.00
47054;BME280;32811;52.382;5.270;2023-04-06T06:44:15;101632.09;;;5.07;100.00
47054;BME280;32811;52.382;5.270;2023-04-06T06:46:43;101629.56;;;5.30;100.00
47054;BME280;32811;52.382;5.270;2023-04-06T06:49:09;101623.28;;;5.44;100.00
47054;BME280;32811;52.382;5.270;2023-04-06T06:51:38;101622.47;;;5.68;100.00
47054;BME280;32811;52.382;5.270;2023-04-06T06:54:05;101618.66;;;5.80;100.00
47054;BME280;32811;52.382;5.270;2023-04-06T06:56:32;101620.22;;;5.99;100.00
47054;BME280;32811;52.382;5.270;2023-04-06T06:58:59;101614.09;;;6.20;100.00
47054;BME280;32811;52.382;5.270;2023-04-06T07:01:26;101617.09;;;6.32;100.00
47054;BME280;32811;52.382;5.270;2023-04-06T07:03:52;101613.50;;;6.53;100.00
47054;BME280;32811;52.382;5.270;2023-04-06T07:06:19;101620.59;;;6.60;100.00
47054;BME280;32811;52.382;5.270;2023-04-06T07:08:46;101614.66;;;6.61;100.00
47054;BME280;32811;52.382;5.270;2023-04-06T07:11:13;101604.03;;;6.50;100.00
47054;BME280;32811;52.382;5.270;2023-04-06T07:13:39;101609.72;;;6.41;100.00
47054;BME280;32811;52.382;5.270;2023-04-06T07:16:06;101614.47;;;6.31;100.00
47054;BME280;32811;52.382;5.270;2023-04-06T07:18:33;101608.97;;;6.20;100.00
47054;BME280;32811;52.382;5.270;2023-04-06T07:21:01;101615.41;;;6.09;100.00
47054;BME280;32811;52.382;5.270;2023-04-06T07:23:28;101609.34;;;6.05;100.00
47054;BME280;32811;52.382;5.270;2023-04-06T07:25:55;101609.19;;;6.02;100.00
47054;BME280;32811;52.382;5.270;2023-04-06T07:28:21;101604.75;;;5.96;100.00
47054;BME280;32811;52.382;5.270;2023-04-06T07:30:48;101612.44;;;5.96;100.00
47054;BME280;32811;52.382;5.270;2023-04-06T07:33:15;101609.88;;;5.96;100.00
47054;BME280;32811;52.382;5.270;2023-04-06T07:35:41;101606.53;;;5.99;100.00
47054;BME280;32811;52.382;5.270;2023-04-06T07:38:08;101607.34;;;5.98;100.00
47054;BME280;32811;52.382;5.270;2023-04-06T07:40:35;101608.44;;;6.05;100.00
47054;BME280;32811;52.382;5.270;2023-04-06T07:43:01;101613.69;;;6.08;100.00
47054;BME280;32811;52.382;5.270;2023-04-06T07:45:28;101601.03;;;6.12;100.00
47054;BME280;32811;52.382;5.270;2023-04-06T07:47:55;101605.53;;;6.19;100.00
47054;BME280;32811;52.382;5.270;2023-04-06T07:50:22;101602.22;;;6.22;100.00
47054;BME280;32811;52.382;5.270;2023-04-06T07:52:49;101601.44;;;6.24;100.00
47054;BME280;32811;52.382;5.270;2023-04-06T07:55:15;101598.38;;;6.35;100.00
47054;BME280;32811;52.382;5.270;2023-04-06T07:57:42;101604.28;;;6.32;100.00
47054;BME280;32811;52.382;5.270;2023-04-06T08:00:09;101600.09;;;6.34;100.00
47054;BME280;32811;52.382;5.270;2023-04-06T08:02:36;101596.06;;;6.42;100.00
47054;BME280;32811;52.382;5.270;2023-04-06T08:05:03;101604.59;;;6.41;100.00
47054;BME280;32811;52.382;5.270;2023-04-06T08:07:30;101595.34;;;6.47;100.00
47054;BME280;32811;52.382;5.270;2023-04-06T08:09:56;101599.84;;;6.54;100.00
47054;BME280;32811;52.382;5.270;2023-04-06T08:12:23;101603.47;;;6.59;100.00
47054;BME280;32811;52.382;5.270;2023-04-06T08:14:50;101596.78;;;6.64;100.00
47054;BME280;32811;52.382;5.270;2023-04-06T08:17:16;101590.88;;;6.67;100.00
47054;BME280;32811;52.382;5.270;2023-04-06T08:19:43;101583.31;;;6.71;100.00
47054;BME280;32811;52.382;5.270;2023-04-06T08:22:11;101586.38;;;6.86;100.00
47054;BME280;32811;52.382;5.270;2023-04-06T08:24:38;101590.94;;;6.95;100.00
47054;BME280;32811;52.382;5.270;2023-04-06T08:27:04;101590.22;;;6.99;100.00
47054;BME280;32811;52.382;5.270;2023-04-06T08:29:31;101588.06;;;7.13;100.00
47054;BME280;32811;52.382;5.270;2023-04-06T08:31:58;101602.88;;;7.22;100.00
47054;BME280;32811;52.382;5.270;2023-04-06T08:34:24;101590.25;;;7.30;100.00
47054;BME280;32811;52.382;5.270;2023-04-06T08:36:51;101600.78;;;7.37;100.00
47054;BME280;32811;52.382;5.270;2023-04-06T08:39:18;101596.69;;;7.44;100.00
47054;BME280;32811;52.382;5.270;2023-04-06T08:41:52;101595.66;;;7.39;100.00
47054;BME280;32811;52.382;5.270;2023-04-06T08:44:19;101596.81;;;7.48;100.00
47054;BME280;32811;52.382;5.270;2023-04-06T08:46:46;101578.59;;;7.41;100.00
47054;BME280;32811;52.382;5.270;2023-04-06T08:49:14;101593.00;;;7.64;100.00
47054;BME280;32811;52.382;5.270;2023-04-06T08:51:41;101582.72;;;7.64;100.00
47054;BME280;32811;52.382;5.270;2023-04-06T08:54:08;101581.13;;;7.68;100.00
47054;BME280;32811;52.382;5.270;2023-04-06T08:56:38;101586.56;;;7.80;100.00
47054;BME280;32811;52.382;5.270;2023-04-06T08:59:06;101581.50;;;7.82;100.00
47054;BME280;32811;52.382;5.270;2023-04-06T09:01:39;101576.50;;;7.88;100.00
47054;BME280;32811;52.382;5.270;2023-04-06T09:04:07;101578.75;;;8.07;100.00
47054;BME280;32811;52.382;5.270;2023-04-06T09:06:39;101583.06;;;8.08;100.00
47054;BME280;32811;52.382;5.270;2023-04-06T09:09:07;101581.44;;;8.12;100.00
47054;BME280;32811;52.382;5.270;2023-04-06T09:11:50;101590.16;;;8.17;100.00
47054;BME280;32811;52.382;5.270;2023-04-06T09:14:34;101571.38;;;8.20;100.00
47054;BME280;32811;52.382;5.270;2023-04-06T09:17:02;101578.63;;;8.36;100.00
47054;BME280;32811;52.382;5.270;2023-04-06T09:19:28;101576.47;;;8.51;100.00
47054;BME280;32811;52.382;5.270;2023-04-06T09:22:05;101575.94;;;8.65;100.00
47054;BME280;32811;52.382;5.270;2023-04-06T09:24:46;101577.88;;;8.73;100.00
47054;BME280;32811;52.382;5.270;2023-04-06T09:27:13;101574.00;;;8.92;100.00
47054;BME280;32811;52.382;5.270;2023-04-06T09:29:41;101576.69;;;8.97;100.00
47054;BME280;32811;52.382;5.270;2023-04-06T09:32:09;101591.09;;;8.89;100.00
47054;BME280;32811;52.382;5.270;2023-04-06T09:34:43;101582.28;;;8.79;100.00
47054;BME280;32811;52.382;5.270;2023-04-06T09:37:16;101576.91;;;8.70;100.00
47054;BME280;32811;52.382;5.270;2023-04-06T09:39:45;101578.94;;;8.83;100.00
47054;BME280;32811;52.382;5.270;2023-04-06T09:42:24;101580.75;;;8.87;100.00
47054;BME280;32811;52.382;5.270;2023-04-06T09:44:52;101571.22;;;8.83;100.00
47054;BME280;32811;52.382;5.270;2023-04-06T09:47:19;101563.66;;;8.89;100.00
47054;BME280;32811;52.382;5.270;2023-04-06T09:49:47;101575.97;;;9.03;100.00
47054;BME280;32811;52.382;5.270;2023-04-06T09:52:17;101574.44;;;9.11;100.00
47054;BME280;32811;52.382;5.270;2023-04-06T09:54:46;101571.06;;;9.15;100.00
47054;BME280;32811;52.382;5.270;2023-04-06T10:02:44;101567.53;;;9.49;100.00
47054;BME280;32811;52.382;5.270;2023-04-06T10:07:52;101572.31;;;9.73;100.00
47054;BME280;32811;52.382;5.270;2023-04-06T10:10:26;101579.38;;;9.84;100.00
47054;BME280;32811;52.382;5.270;2023-04-06T10:12:54;101586.53;;;9.98;100.00
47054;BME280;32811;52.382;5.270;2023-04-06T10:15:22;101589.03;;;9.95;100.00
47054;BME280;32811;52.382;5.270;2023-04-06T10:17:48;101579.66;;;9.99;100.00
47054;BME280;32811;52.382;5.270;2023-04-06T10:20:35;101575.75;;;9.75;100.00
47054;BME280;32811;52.382;5.270;2023-04-06T10:23:09;101582.31;;;9.58;100.00
47054;BME280;32811;52.382;5.270;2023-04-06T10:25:59;101582.19;;;9.52;100.00
47054;BME280;32811;52.382;5.270;2023-04-06T10:28:32;101579.22;;;9.35;100.00
47054;BME280;32811;52.382;5.270;2023-04-06T10:31:00;101576.75;;;9.40;100.00
47054;BME280;32811;52.382;5.270;2023-04-06T10:33:28;101571.53;;;9.37;100.00
47054;BME280;32811;52.382;5.270;2023-04-06T10:35:55;101581.91;;;9.40;100.00
47054;BME280;32811;52.382;5.270;2023-04-06T10:38:35;101570.69;;;9.36;100.00
47054;BME280;32811;52.382;5.270;2023-04-06T10:41:08;101571.31;;;9.24;100.00
47054;BME280;32811;52.382;5.270;2023-04-06T10:43:37;101563.75;;;9.33;100.00
47054;BME280;32811;52.382;5.270;2023-04-06T10:46:06;101563.44;;;9.20;100.00
47054;BME280;32811;52.382;5.270;2023-04-06T10:48:40;101564.53;;;9.29;100.00
47054;BME280;32811;52.382;5.270;2023-04-06T10:51:10;101562.66;;;9.22;100.00
47054;BME280;32811;52.382;5.270;2023-04-06T10:53:37;101539.66;;;9.31;100.00
47054;BME280;32811;52.382;5.270;2023-04-06T10:56:04;101561.06;;;9.27;100.00
47054;BME280;32811;52.382;5.270;2023-04-06T10:58:36;101550.81;;;9.30;100.00
47054;BME280;32811;52.382;5.270;2023-04-06T11:01:03;101563.75;;;9.33;100.00
47054;BME280;32811;52.382;5.270;2023-04-06T11:03:31;101550.81;;;9.30;100.00
47054;BME280;32811;52.382;5.270;2023-04-06T11:05:58;101547.13;;;9.18;100.00
47054;BME280;32811;52.382;5.270;2023-04-06T11:08:32;101560.56;;;9.06;100.00
47054;BME280;32811;52.382;5.270;2023-04-06T11:13:56;101541.63;;;9.02;100.00
47054;BME280;32811;52.382;5.270;2023-04-06T11:16:24;101538.16;;;9.02;100.00
47054;BME280;32811;52.382;5.270;2023-04-06T11:19:02;101551.47;;;8.82;100.00
47054;BME280;32811;52.382;5.270;2023-04-06T11:21:46;101549.72;;;8.81;100.00
47054;BME280;32811;52.382;5.270;2023-04-06T11:26:50;101535.94;;;8.78;100.00
47054;BME280;32811;52.382;5.270;2023-04-06T11:29:21;101539.63;;;8.90;100.00
47054;BME280;32811;52.382;5.270;2023-04-06T11:31:50;101523.97;;;8.81;100.00
47054;BME280;32811;52.382;5.270;2023-04-06T11:34:19;101527.25;;;8.74;100.00
47054;BME280;32811;52.382;5.270;2023-04-06T11:36:48;101536.69;;;8.73;100.00
47054;BME280;32811;52.382;5.270;2023-04-06T11:39:20;101535.53;;;8.61;100.00
47054;BME280;32811;52.382;5.270;2023-04-06T11:41:51;101540.88;;;8.70;100.00
47054;BME280;32811;52.382;5.270;2023-04-06T11:44:38;101536.31;;;8.58;100.00
47054;BME280;32811;52.382;5.270;2023-04-06T11:47:10;101527.00;;;8.63;100.00
47054;BME280;32811;52.382;5.270;2023-04-06T11:49:38;101534.00;;;8.69;100.00
47054;BME280;32811;52.382;5.270;2023-04-06T11:52:23;101516.72;;;8.63;100.00
47054;BME280;32811;52.382;5.270;2023-04-06T11:54:51;101528.41;;;8.50;100.00
47054;BME280;32811;52.382;5.270;2023-04-06T11:57:19;101526.22;;;8.31;100.00
47054;BME280;32811;52.382;5.270;2023-04-06T11:59:47;101523.94;;;8.43;100.00
47054;BME280;32811;52.382;5.270;2023-04-06T12:02:13;101520.56;;;8.44;100.00
47054;BME280;32811;52.382;5.270;2023-04-06T12:04:40;101517.75;;;8.37;100.00
47054;BME280;32811;52.382;5.270;2023-04-06T12:07:07;101509.59;;;8.51;100.00
47054;BME280;32811;52.382;5.270;2023-04-06T12:09:33;101514.72;;;8.51;100.00
47054;BME280;32811;52.382;5.270;2023-04-06T12:12:01;101512.22;;;8.55;100.00
47054;BME280;32811;52.382;5.270;2023-04-06T12:14:28;101511.06;;;8.42;100.00
47054;BME280;32811;52.382;5.270;2023-04-06T12:16:57;101515.28;;;8.40;100.00
47054;BME280;32811;52.382;5.270;2023-04-06T12:19:24;101499.06;;;8.42;100.00
47054;BME280;32811;52.382;5.270;2023-04-06T12:21:53;101513.13;;;8.57;100.00
47054;BME280;32811;52.382;5.270;2023-04-06T12:24:21;101506.16;;;8.52;100.00
47054;BME280;32811;52.382;5.270;2023-04-06T12:26:47;101507.81;;;8.50;100.00
47054;BME280;32811;52.382;5.270;2023-04-06T12:29:19;101502.31;;;8.35;100.00
47054;BME280;32811;52.382;5.270;2023-04-06T12:31:46;101509.88;;;8.29;100.00
47054;BME280;32811;52.382;5.270;2023-04-06T12:34:12;101507.94;;;8.20;100.00
47054;BME280;32811;52.382;5.270;2023-04-06T12:36:39;101500.75;;;8.07;100.00
47054;BME280;32811;52.382;5.270;2023-04-06T12:39:06;101514.69;;;8.17;100.00
47054;BME280;32811;52.382;5.270;2023-04-06T12:41:33;101504.34;;;8.14;100.00
47054;BME280;32811;52.382;5.270;2023-04-06T12:44:00;101494.63;;;8.02;100.00
47054;BME280;32811;52.382;5.270;2023-04-06T12:46:27;101501.72;;;8.10;100.00
47054;BME280;32811;52.382;5.270;2023-04-06T12:48:56;101493.50;;;7.90;100.00
47054;BME280;32811;52.382;5.270;2023-04-06T12:51:27;101492.19;;;8.08;100.00
47054;BME280;32811;52.382;5.270;2023-04-06T12:53:54;101499.19;;;8.14;100.00
47054;BME280;32811;52.382;5.270;2023-04-06T12:56:21;101494.84;;;8.11;100.00
47054;BME280;32811;52.382;5.270;2023-04-06T12:58:50;101501.38;;;7.98;100.00
47054;BME280;32811;52.382;5.270;2023-04-06T13:01:17;101494.63;;;8.02;100.00
47054;BME280;32811;52.382;5.270;2023-04-06T13:03:44;101491.16;;;8.01;100.00
47054;BME280;32811;52.382;5.270;2023-04-06T13:06:11;101492.84;;;7.99;100.00